createdAt,value
2023-05-12T00:01:16.785Z,7.40
2023-05-12T00:03:44.140Z,7.10
2023-05-12T00:06:11.519Z,8.90
2023-05-12T00:08:38.435Z,8.10
2023-05-12T00:11:05.316Z,7.50
2023-05-12T00:13:32.158Z,8.20
2023-05-12T00:15:59.411Z,14.40
2023-05-12T00:18:28.286Z,8.40
2023-05-12T00:20:55.651Z,8.70
2023-05-12T00:23:22.929Z,11.90
2023-05-12T00:25:50.130Z,8.60
2023-05-12T00:28:18.396Z,6.90
2023-05-12T00:30:45.776Z,7.00
2023-05-12T00:33:12.949Z,9.80
2023-05-12T00:35:39.853Z,11.50
2023-05-12T00:38:06.624Z,9.20
2023-05-12T00:40:33.373Z,8.20
2023-05-12T00:43:00.285Z,6.90
2023-05-12T00:45:29.546Z,6.90
2023-05-12T00:47:56.781Z,7.50
2023-05-12T00:50:24.936Z,10.50
2023-05-12T00:52:51.702Z,9.20
2023-05-12T00:55:18.578Z,8.10
2023-05-12T00:57:45.525Z,7.70
2023-05-12T01:00:14.139Z,10.80
2023-05-12T01:02:42.183Z,8.40
2023-05-12T01:05:10.143Z,11.20
2023-05-12T01:07:37.929Z,8.40
2023-05-12T01:10:05.453Z,9.10
2023-05-12T01:12:34.821Z,10.00
2023-05-12T01:15:03.166Z,6.40
2023-05-12T01:17:33.418Z,9.10
2023-05-12T01:20:01.778Z,8.60
2023-05-12T01:22:31.351Z,8.30
2023-05-12T01:25:00.124Z,8.40
2023-05-12T01:27:28.957Z,8.00
2023-05-12T01:29:58.936Z,9.20
2023-05-12T01:32:26.484Z,9.60
2023-05-12T01:34:53.573Z,8.20
2023-05-12T01:37:20.700Z,7.30
2023-05-12T01:39:47.676Z,10.40
2023-05-12T01:42:18.599Z,12.40
2023-05-12T01:44:45.508Z,9.40
2023-05-12T01:47:12.289Z,10.10
2023-05-12T01:49:40.508Z,10.40
2023-05-12T01:52:10.876Z,8.10
2023-05-12T01:54:37.681Z,7.50
2023-05-12T01:57:05.411Z,10.50
2023-05-12T01:59:33.134Z,8.70
2023-05-12T02:02:00.850Z,10.10
2023-05-12T02:04:30.011Z,8.70
2023-05-12T02:06:57.090Z,9.00
2023-05-12T02:09:24.074Z,8.20
2023-05-12T02:11:51.236Z,9.80
2023-05-12T02:14:18.159Z,12.10
2023-05-12T02:16:45.426Z,9.60
2023-05-12T02:19:12.404Z,13.40
2023-05-12T02:21:39.403Z,9.60
2023-05-12T02:24:06.686Z,9.60
2023-05-12T02:26:35.034Z,7.60
2023-05-12T02:29:02.160Z,7.70
2023-05-12T02:31:29.053Z,11.40
2023-05-12T02:33:56.156Z,8.60
2023-05-12T02:36:23.161Z,10.50
2023-05-12T02:38:50.184Z,11.30
2023-05-12T02:41:17.269Z,11.60
2023-05-12T02:43:44.212Z,9.80
2023-05-12T02:46:11.275Z,10.40
2023-05-12T02:48:38.722Z,11.50
2023-05-12T02:51:05.889Z,15.90
2023-05-12T02:53:32.690Z,13.00
2023-05-12T02:55:59.485Z,9.00
2023-05-12T02:58:26.380Z,13.00
2023-05-12T03:01:03.168Z,8.10
2023-05-12T03:03:37.067Z,16.90
2023-05-12T03:06:04.779Z,11.90
2023-05-12T03:08:31.820Z,12.30
2023-05-12T03:10:58.854Z,14.60
2023-05-12T03:13:26.094Z,10.70
2023-05-12T03:15:52.862Z,10.50
2023-05-12T03:18:19.809Z,11.00
2023-05-12T03:20:47.121Z,10.90
2023-05-12T03:23:13.882Z,14.20
2023-05-12T03:25:40.675Z,10.10
2023-05-12T03:28:08.069Z,9.80
2023-05-12T03:30:35.053Z,11.50
2023-05-12T03:33:01.943Z,12.40
2023-05-12T03:35:28.979Z,15.10
2023-05-12T03:37:55.872Z,19.10
2023-05-12T03:40:22.931Z,13.80
2023-05-12T03:42:50.197Z,15.00
2023-05-12T03:45:18.049Z,11.00
2023-05-12T03:47:44.962Z,12.00
2023-05-12T03:50:12.833Z,16.40
2023-05-12T03:52:41.349Z,14.20
2023-05-12T03:55:09.312Z,24.20
2023-05-12T03:57:37.847Z,23.90
2023-05-12T04:00:05.861Z,16.10
2023-05-12T04:02:39.724Z,17.70
2023-05-12T04:05:08.651Z,27.00
2023-05-12T04:07:35.913Z,23.00
2023-05-12T04:10:03.221Z,31.60
2023-05-12T04:12:30.157Z,24.20
2023-05-12T04:14:57.637Z,27.90
2023-05-12T04:17:24.556Z,41.50
2023-05-12T04:19:53.578Z,23.00
2023-05-12T04:22:20.884Z,21.70
2023-05-12T04:24:48.428Z,28.60
2023-05-12T04:27:15.226Z,23.30
2023-05-12T04:29:42.124Z,26.40
2023-05-12T04:32:09.322Z,15.90
2023-05-12T04:34:36.478Z,10.70
2023-05-12T04:37:03.361Z,7.90
2023-05-12T04:39:30.256Z,15.10
2023-05-12T04:41:57.832Z,24.80
2023-05-12T04:44:24.944Z,12.70
2023-05-12T04:46:54.193Z,12.90
2023-05-12T04:49:21.198Z,12.60
2023-05-12T04:51:48.136Z,15.90
2023-05-12T04:54:15.046Z,11.00
2023-05-12T04:56:42.901Z,17.00
2023-05-12T04:59:09.855Z,12.70
2023-05-12T05:01:36.597Z,9.80
2023-05-12T05:04:03.855Z,12.70
2023-05-12T05:06:30.862Z,9.10
2023-05-12T05:08:58.496Z,19.70
2023-05-12T05:11:25.956Z,14.00
2023-05-12T05:13:52.731Z,8.00
2023-05-12T05:16:20.187Z,12.40
2023-05-12T05:18:47.812Z,11.60
2023-05-12T05:21:14.670Z,11.50
2023-05-12T05:23:41.803Z,14.40
2023-05-12T05:26:09.229Z,15.00
2023-05-12T05:28:36.640Z,11.50
2023-05-12T05:31:04.889Z,10.90
2023-05-12T05:33:32.329Z,13.40
2023-05-12T05:36:00.043Z,11.90
2023-05-12T05:38:27.522Z,8.40
2023-05-12T05:40:54.758Z,11.20
2023-05-12T05:43:23.466Z,6.80
2023-05-12T05:45:51.492Z,16.70
2023-05-12T05:48:20.045Z,9.60
2023-05-12T05:50:47.260Z,7.90
2023-05-12T05:53:14.347Z,8.70
2023-05-12T05:55:41.387Z,9.70
2023-05-12T05:58:08.649Z,9.80
2023-05-12T06:00:35.505Z,10.20
2023-05-12T06:03:02.477Z,8.60
2023-05-12T06:05:30.720Z,9.00
2023-05-12T06:07:57.504Z,9.70
2023-05-12T06:10:25.613Z,10.30
2023-05-12T06:12:52.533Z,7.50
2023-05-12T06:15:21.464Z,7.80
2023-05-12T06:17:49.715Z,10.20
2023-05-12T06:20:16.657Z,10.10
2023-05-12T06:22:45.305Z,10.50
2023-05-12T06:25:13.315Z,7.70
2023-05-12T06:27:40.166Z,13.60
2023-05-12T06:30:07.916Z,7.80
2023-05-12T06:32:34.823Z,9.60
2023-05-12T06:35:02.157Z,12.60
2023-05-12T06:37:29.090Z,14.80
2023-05-12T06:39:57.948Z,9.40
2023-05-12T06:42:26.759Z,9.50
2023-05-12T06:44:55.990Z,9.40
2023-05-12T06:47:22.799Z,16.00
2023-05-12T06:49:50.332Z,10.20
2023-05-12T06:52:17.218Z,12.40
2023-05-12T06:54:44.099Z,8.50
2023-05-12T06:57:10.963Z,10.90
2023-05-12T06:59:37.817Z,9.30
2023-05-12T07:02:04.873Z,10.60
2023-05-12T07:04:31.732Z,11.40
2023-05-12T07:06:58.856Z,10.60
2023-05-12T07:09:25.656Z,11.10
2023-05-12T07:11:52.495Z,6.70
2023-05-12T07:14:19.411Z,8.90
2023-05-12T07:16:46.900Z,6.30
2023-05-12T07:19:13.781Z,6.60
2023-05-12T07:21:40.939Z,8.90
2023-05-12T07:24:07.796Z,6.30
2023-05-12T07:26:34.667Z,7.90
2023-05-12T07:31:20.707Z,6.10
2023-05-12T07:33:48.036Z,11.60
2023-05-12T07:36:15.057Z,9.70
2023-05-12T07:38:44.842Z,8.20
2023-05-12T07:41:11.898Z,9.10
2023-05-12T07:43:38.880Z,8.10
2023-05-12T07:46:20.904Z,9.10
2023-05-12T07:48:47.952Z,11.50
2023-05-12T07:51:15.026Z,7.40
2023-05-12T07:53:41.985Z,7.70
2023-05-12T07:56:08.934Z,5.80
2023-05-12T07:58:35.871Z,12.10
2023-05-12T08:01:06.028Z,12.20
2023-05-12T08:03:33.621Z,13.80
2023-05-12T08:06:00.554Z,9.60
2023-05-12T08:08:27.392Z,7.40
2023-05-12T08:10:54.223Z,6.90
2023-05-12T08:13:21.121Z,8.10
2023-05-12T08:15:49.418Z,9.10
2023-05-12T08:18:16.256Z,6.30
2023-05-12T08:20:43.213Z,6.20
2023-05-12T08:23:10.045Z,8.90
2023-05-12T08:25:37.323Z,10.10
2023-05-12T08:28:04.619Z,16.60
2023-05-12T08:30:31.340Z,39.50
2023-05-12T08:32:58.274Z,7.30
2023-05-12T08:35:25.162Z,6.60
2023-05-12T08:37:52.804Z,9.40
2023-05-12T08:40:25.796Z,6.50
2023-05-12T08:43:13.772Z,10.90
2023-05-12T08:45:40.711Z,11.80
2023-05-12T08:48:11.458Z,14.10
2023-05-12T08:50:38.862Z,12.80
2023-05-12T08:53:05.767Z,12.40
2023-05-12T08:55:34.324Z,10.20
2023-05-12T08:58:03.059Z,17.40
2023-05-12T09:00:31.249Z,10.60
2023-05-12T09:02:59.480Z,8.60
2023-05-12T09:05:27.345Z,9.80
2023-05-12T09:07:55.331Z,17.50
2023-05-12T09:10:34.224Z,7.20
2023-05-12T09:13:37.958Z,8.90
2023-05-12T09:16:04.863Z,13.50
2023-05-12T09:18:44.495Z,14.90
2023-05-12T09:21:11.977Z,8.30
2023-05-12T09:23:38.834Z,10.30
2023-05-12T09:26:05.618Z,6.80
2023-05-12T09:28:39.014Z,9.30
2023-05-12T09:31:16.261Z,11.10
2023-05-12T09:33:43.075Z,9.20
2023-05-12T09:36:09.915Z,9.00
2023-05-12T09:38:36.760Z,4.40
2023-05-12T09:41:03.774Z,7.90
2023-05-12T09:43:32.231Z,8.50
2023-05-12T09:46:05.814Z,5.20
2023-05-12T09:48:33.289Z,8.10
2023-05-12T09:51:00.200Z,5.30
2023-05-12T09:53:27.242Z,8.80
2023-05-12T09:55:54.079Z,6.90
2023-05-12T09:58:21.052Z,11.50
2023-05-12T10:03:18.226Z,9.00
2023-05-12T10:05:56.668Z,4.80
2023-05-12T10:08:32.379Z,5.80
2023-05-12T10:10:59.857Z,7.40
2023-05-12T10:13:26.842Z,15.00
2023-05-12T10:15:55.997Z,7.90
2023-05-12T10:18:23.414Z,6.40
2023-05-12T10:20:50.276Z,9.90
2023-05-12T10:23:17.256Z,6.90
2023-05-12T10:25:44.151Z,10.50
2023-05-12T10:28:11.874Z,7.90
2023-05-12T10:30:39.345Z,4.90
2023-05-12T10:33:08.705Z,6.50
2023-05-12T10:35:36.443Z,5.70
2023-05-12T10:38:07.617Z,4.00
2023-05-12T10:40:34.393Z,7.30
2023-05-12T10:43:01.539Z,5.40
2023-05-12T10:45:28.399Z,8.90
2023-05-12T10:48:05.241Z,5.20
2023-05-12T10:50:32.052Z,6.90
2023-05-12T10:52:58.965Z,5.20
2023-05-12T10:55:37.023Z,5.60
2023-05-12T10:58:05.682Z,6.30
2023-05-12T11:00:33.070Z,6.80
2023-05-12T11:03:08.010Z,7.20
2023-05-12T11:05:37.782Z,5.30
2023-05-12T11:08:05.364Z,5.50
2023-05-12T11:10:33.568Z,8.20
2023-05-12T11:13:24.426Z,8.40
2023-05-12T11:15:56.869Z,8.30
2023-05-12T11:18:23.922Z,7.40
2023-05-12T11:20:55.238Z,4.50
2023-05-12T11:23:34.913Z,7.60
2023-05-12T11:26:20.207Z,5.50
2023-05-12T11:28:47.731Z,5.50
2023-05-12T11:31:21.369Z,5.50
2023-05-12T11:33:53.712Z,8.50
2023-05-12T11:36:25.599Z,4.80
2023-05-12T11:38:52.391Z,9.40
2023-05-12T11:41:26.268Z,8.40
2023-05-12T11:43:53.848Z,8.20
2023-05-12T11:46:27.658Z,10.20
2023-05-12T11:48:59.171Z,6.20
2023-05-12T11:53:53.454Z,6.80
2023-05-12T12:01:44.506Z,14.00
2023-05-12T12:04:11.324Z,12.80
2023-05-12T12:06:45.416Z,8.30
2023-05-12T12:09:12.536Z,6.00
2023-05-12T12:11:39.296Z,12.80
2023-05-12T12:14:06.247Z,10.30
2023-05-12T12:16:33.188Z,15.40
2023-05-12T12:19:00.259Z,9.90
2023-05-12T12:21:27.126Z,15.00
2023-05-12T12:23:54.096Z,15.50
2023-05-12T12:26:21.650Z,21.00
2023-05-12T12:28:48.862Z,7.10
2023-05-12T12:31:16.060Z,9.00
2023-05-12T12:33:43.086Z,8.20
2023-05-12T12:36:10.012Z,6.00
2023-05-12T12:38:36.907Z,8.30
2023-05-12T12:41:04.454Z,11.40
2023-05-12T12:43:31.260Z,9.20
2023-05-12T12:45:58.231Z,7.80
2023-05-12T12:48:26.707Z,10.50
2023-05-12T12:50:53.959Z,6.20
2023-05-12T12:53:20.974Z,9.10
2023-05-12T12:55:47.778Z,7.20
2023-05-12T12:58:14.569Z,6.80
2023-05-12T13:00:41.371Z,12.10
2023-05-12T13:03:08.368Z,6.80
2023-05-12T13:05:35.478Z,6.00
2023-05-12T13:08:02.299Z,5.10
2023-05-12T13:10:29.300Z,7.10
2023-05-12T13:12:56.191Z,11.20
2023-05-12T13:15:23.363Z,6.00
2023-05-12T13:17:50.422Z,5.20
2023-05-12T13:20:17.282Z,9.40
2023-05-12T13:22:44.819Z,11.20
2023-05-12T13:25:11.751Z,9.20
2023-05-12T13:27:38.705Z,12.10
2023-05-12T13:30:10.900Z,13.80
2023-05-12T13:32:39.638Z,8.20
2023-05-12T13:35:06.848Z,10.40
2023-05-12T13:37:33.664Z,4.10
2023-05-12T13:40:00.498Z,5.50
2023-05-12T13:42:27.420Z,6.10
2023-05-12T13:44:54.199Z,9.20
2023-05-12T13:47:21.175Z,5.90
2023-05-12T13:49:48.155Z,5.40
2023-05-12T13:52:15.612Z,9.50
2023-05-12T13:54:42.435Z,12.20
2023-05-12T13:57:09.290Z,5.90
2023-05-12T13:59:36.339Z,7.70
2023-05-12T14:02:03.256Z,5.30
2023-05-12T14:04:30.435Z,7.80
2023-05-12T14:06:57.690Z,13.00
2023-05-12T14:09:25.004Z,9.10
2023-05-12T14:11:52.079Z,11.30
2023-05-12T14:14:18.865Z,5.60
2023-05-12T14:16:45.897Z,6.80
2023-05-12T14:19:12.826Z,13.10
2023-05-12T14:21:41.380Z,3.70
2023-05-12T14:24:09.180Z,5.90
2023-05-12T14:26:36.093Z,9.00
2023-05-12T14:29:03.069Z,6.20
2023-05-12T14:31:30.444Z,6.30
2023-05-12T14:33:57.393Z,11.10
2023-05-12T14:36:24.202Z,5.30
2023-05-12T14:38:50.951Z,6.00
2023-05-12T14:41:17.783Z,5.50
2023-05-12T14:43:44.734Z,10.00
2023-05-12T14:46:12.068Z,7.30
2023-05-12T14:48:39.234Z,9.10
2023-05-12T14:51:06.024Z,6.00
2023-05-12T14:53:33.088Z,6.60
2023-05-12T14:55:59.957Z,7.50
2023-05-12T14:58:27.125Z,7.60
2023-05-12T15:00:54.044Z,11.00
2023-05-12T15:03:21.283Z,6.90
2023-05-12T15:08:21.684Z,5.80
2023-05-12T15:10:48.702Z,5.20
2023-05-12T15:13:17.829Z,6.70
2023-05-12T15:15:45.000Z,4.50
2023-05-12T15:18:11.846Z,7.10
2023-05-12T15:20:38.837Z,9.80
2023-05-12T15:23:05.844Z,6.00
2023-05-12T15:25:33.055Z,5.90
2023-05-12T15:27:59.860Z,10.00
2023-05-12T15:30:26.727Z,7.40
2023-05-12T15:32:53.660Z,5.00
2023-05-12T15:35:20.674Z,12.00
2023-05-12T15:37:47.650Z,11.10
2023-05-12T15:40:14.815Z,10.80
2023-05-12T15:42:41.600Z,5.60
2023-05-12T15:45:09.732Z,6.90
2023-05-12T15:47:36.872Z,9.20
2023-05-12T15:50:04.517Z,5.90
2023-05-12T15:52:31.395Z,6.80
2023-05-12T15:54:58.307Z,10.70
2023-05-12T15:57:25.004Z,4.90
2023-05-12T15:59:57.669Z,10.30
2023-05-12T16:02:24.730Z,6.60
2023-05-12T16:04:51.682Z,7.90
2023-05-12T16:07:18.504Z,8.60
2023-05-12T16:09:45.603Z,5.20
2023-05-12T16:12:12.379Z,8.90
2023-05-12T16:14:39.298Z,6.30
2023-05-12T16:17:06.023Z,6.10
2023-05-12T16:19:32.759Z,10.60
2023-05-12T16:22:00.431Z,5.60
2023-05-12T16:24:28.803Z,9.20
2023-05-12T16:26:56.285Z,8.20
2023-05-12T16:29:22.988Z,12.30
2023-05-12T16:31:49.946Z,12.60
2023-05-12T16:34:16.850Z,8.70
2023-05-12T16:36:44.224Z,7.00
2023-05-12T16:39:11.104Z,7.70
2023-05-12T16:41:37.882Z,11.90
2023-05-12T16:44:05.210Z,10.90
2023-05-12T16:46:32.847Z,10.50
2023-05-12T16:48:59.963Z,10.80
2023-05-12T16:51:30.471Z,9.20
2023-05-12T16:53:57.854Z,5.20
2023-05-12T16:56:25.964Z,6.80
2023-05-12T16:58:52.940Z,6.20
2023-05-12T17:01:19.748Z,11.10
2023-05-12T17:03:46.997Z,9.30
2023-05-12T17:06:13.918Z,7.20
2023-05-12T17:08:41.349Z,6.80
2023-05-12T17:11:08.370Z,11.70
2023-05-12T17:13:36.862Z,9.30
2023-05-12T17:16:04.371Z,11.20
2023-05-12T17:18:31.509Z,5.70
2023-05-12T17:20:58.923Z,7.90
2023-05-12T17:23:26.856Z,10.30
2023-05-12T17:25:54.341Z,7.10
2023-05-12T17:28:21.370Z,8.30
2023-05-12T17:30:48.621Z,7.80
2023-05-12T17:33:16.518Z,12.30
2023-05-12T17:35:44.602Z,6.70
2023-05-12T17:38:16.270Z,10.40
2023-05-12T17:40:43.270Z,9.60
2023-05-12T17:43:09.960Z,10.70
2023-05-12T17:45:36.784Z,7.60
2023-05-12T17:48:04.165Z,7.50
2023-05-12T17:50:31.046Z,9.40
2023-05-12T17:52:58.194Z,6.40
2023-05-12T17:55:25.116Z,10.80
2023-05-12T17:57:52.053Z,9.90
2023-05-12T18:00:19.096Z,13.40
2023-05-12T18:02:46.278Z,10.10
2023-05-12T18:05:13.104Z,16.00
2023-05-12T18:07:40.134Z,10.40
2023-05-12T18:10:08.548Z,14.30
2023-05-12T18:12:36.141Z,21.80
2023-05-12T18:15:03.882Z,15.50
2023-05-12T18:17:30.741Z,10.30
2023-05-12T18:19:57.761Z,15.80
2023-05-12T18:22:24.567Z,11.70
2023-05-12T18:24:51.447Z,24.10
2023-05-12T18:27:18.163Z,15.00
2023-05-12T18:29:45.029Z,12.80
2023-05-12T18:32:11.789Z,10.70
2023-05-12T18:34:38.828Z,11.40
2023-05-12T18:37:08.884Z,12.10
2023-05-12T18:39:39.475Z,14.50
2023-05-12T18:42:08.164Z,9.50
2023-05-12T18:44:34.903Z,18.70
2023-05-12T18:47:01.709Z,13.00
2023-05-12T18:49:28.501Z,25.80
2023-05-12T18:51:55.281Z,17.20
2023-05-12T18:54:22.072Z,19.60
2023-05-12T18:56:50.825Z,20.10
2023-05-12T18:59:18.445Z,32.30
2023-05-12T19:01:45.401Z,22.10
2023-05-12T19:04:13.058Z,18.70
2023-05-12T19:06:39.800Z,22.20
2023-05-12T19:09:06.927Z,23.00
2023-05-12T19:11:33.687Z,18.50
2023-05-12T19:14:00.433Z,14.30
2023-05-12T19:16:31.935Z,13.40
2023-05-12T19:19:00.539Z,12.50
2023-05-12T19:21:27.920Z,15.30
2023-05-12T19:23:57.849Z,16.40
2023-05-12T19:26:24.704Z,19.10
2023-05-12T19:28:51.477Z,26.80
2023-05-12T19:31:18.217Z,23.80
2023-05-12T19:33:45.417Z,21.10
2023-05-12T19:36:12.350Z,22.20
2023-05-12T19:38:43.564Z,20.00
2023-05-12T19:41:10.999Z,27.60
2023-05-12T19:43:37.824Z,22.70
2023-05-12T19:49:10.482Z,19.20
2023-05-12T19:51:37.458Z,27.10
2023-05-12T19:54:06.495Z,33.20
2023-05-12T19:56:33.711Z,37.30
2023-05-12T19:59:00.778Z,30.50
2023-05-12T20:01:27.905Z,55.50
2023-05-12T20:03:54.798Z,49.00
2023-05-12T20:06:22.492Z,47.20
2023-05-12T20:08:49.503Z,49.30
2023-05-12T20:11:16.373Z,49.00
2023-05-12T20:13:43.203Z,52.50
2023-05-12T20:16:10.122Z,44.70
2023-05-12T20:18:36.930Z,37.80
2023-05-12T20:21:03.954Z,40.20
2023-05-12T20:23:30.690Z,41.00
2023-05-12T20:25:58.408Z,40.70
2023-05-12T20:28:25.504Z,42.80
2023-05-12T20:30:52.420Z,30.50
2023-05-12T20:33:19.323Z,34.70
2023-05-12T20:35:46.178Z,26.20
2023-05-12T20:38:13.726Z,19.60
2023-05-12T20:40:41.193Z,23.70
2023-05-12T20:43:08.034Z,28.20
2023-05-12T20:45:35.081Z,25.50
2023-05-12T20:48:02.513Z,29.60
2023-05-12T20:50:29.488Z,27.60
2023-05-12T20:52:56.325Z,38.30
2023-05-12T20:55:23.408Z,23.70
2023-05-12T20:57:50.632Z,22.00
2023-05-12T21:00:18.393Z,28.60
2023-05-12T21:02:45.679Z,24.40
2023-05-12T21:05:12.687Z,24.50
2023-05-12T21:07:39.648Z,33.50
2023-05-12T21:10:06.813Z,25.10
2023-05-12T21:12:34.260Z,29.30
2023-05-12T21:15:01.916Z,25.00
2023-05-12T21:17:28.657Z,25.60
2023-05-12T21:19:55.586Z,29.30
2023-05-12T21:22:22.335Z,28.50
2023-05-12T21:24:51.055Z,23.50
2023-05-12T21:27:18.677Z,27.30
2023-05-12T21:29:45.533Z,29.30
2023-05-12T21:32:12.360Z,26.00
2023-05-12T21:34:39.398Z,23.40
2023-05-12T21:37:06.444Z,28.00
2023-05-12T21:39:33.300Z,36.80
2023-05-12T21:42:00.260Z,27.30
2023-05-12T21:44:27.116Z,33.10
2023-05-12T21:46:54.036Z,28.00
2023-05-12T21:49:21.097Z,27.20
2023-05-12T21:51:48.028Z,28.60
2023-05-12T21:54:14.856Z,27.60
2023-05-12T21:56:41.605Z,24.40
2023-05-12T21:59:08.435Z,22.10
2023-05-12T22:01:35.250Z,18.30
2023-05-12T22:04:02.206Z,25.20
2023-05-12T22:06:29.167Z,16.60
2023-05-12T22:08:56.020Z,18.00
2023-05-12T22:11:23.367Z,14.40
2023-05-12T22:13:50.541Z,27.50
2023-05-12T22:16:18.549Z,14.30
2023-05-12T22:18:47.102Z,13.00
2023-05-12T22:21:14.050Z,21.60
2023-05-12T22:23:42.212Z,13.80
2023-05-12T22:26:09.758Z,19.30
2023-05-12T22:28:36.607Z,17.30
2023-05-12T22:31:03.558Z,15.70
2023-05-12T22:33:31.217Z,22.20
2023-05-12T22:35:59.291Z,23.00
2023-05-12T22:38:27.168Z,18.20
2023-05-12T22:40:54.089Z,20.10
2023-05-12T22:43:21.149Z,19.70
2023-05-12T22:45:52.101Z,20.90
2023-05-12T22:48:19.851Z,17.40
2023-05-12T22:50:46.898Z,15.90
2023-05-12T22:53:13.961Z,13.10
2023-05-12T22:55:41.087Z,19.10
2023-05-12T22:58:07.927Z,19.60
2023-05-12T23:00:34.684Z,17.60
2023-05-12T23:03:03.481Z,18.00
2023-05-12T23:05:30.512Z,19.00
2023-05-12T23:07:57.482Z,15.60
2023-05-12T23:10:24.496Z,18.10
2023-05-12T23:12:51.665Z,22.70
2023-05-12T23:15:18.589Z,15.50
2023-05-12T23:17:45.369Z,14.20
2023-05-12T23:20:12.687Z,19.50
2023-05-12T23:22:39.843Z,17.80
2023-05-12T23:25:07.426Z,17.60
2023-05-12T23:27:34.248Z,17.70
2023-05-12T23:30:01.078Z,15.70
2023-05-12T23:32:28.127Z,18.50
2023-05-12T23:34:55.085Z,20.70
2023-05-12T23:37:21.804Z,14.50
2023-05-12T23:39:48.759Z,15.40
2023-05-12T23:42:17.181Z,18.90
2023-05-12T23:44:44.010Z,19.40
2023-05-12T23:47:10.805Z,18.50
2023-05-12T23:49:37.681Z,20.30
2023-05-12T23:52:04.708Z,19.30
2023-05-12T23:54:31.478Z,14.50
2023-05-12T23:56:58.513Z,17.50
2023-05-12T23:59:25.542Z,17.90
